Home   Weather   USA   Washington DC   Past weeks
Flag for USA

Past Weather in Washington DC, USA — August 2020

Currently: 63 °F. Partly sunny. (Weather station: Reagan National Airport, USA). See more current weather

August 2020 Weather in Washington DC — Graph

°F

High & Low Weather Summary for August 2020

 TemperatureHumidityPressure
High93 °F (Aug 27, 2:52 pm)94% (Aug 3, 9:52 pm)30.17 "Hg (Aug 3, 9:52 pm)
Low66 °F (Aug 16, 3:34 am)42% (Aug 26, 2:52 pm)29.53 "Hg (Aug 29, 3:52 pm)
Average78 °F76%29.97 "Hg
* Reported Aug 1 12:52 am — Aug 31 11:52 pm, Washington DC. Weather by CustomWeather, © 2021

Note: Actual official high and low records may vary slightly from our data, if they occured in-between our weather recording intervals... More about our weather records

Washington DC Weather History for August 1, 2020

Scroll right to see more
 ConditionsComfort  
Time TempWeatherWind HumidityBarometerVisibility
12:52 am
Sat, Aug 1
77 °FMostly cloudy.6 mph85%29.89 "Hg10 mi
1:52 am77 °FOvercast.7 mph85%29.89 "Hg10 mi
2:52 am75 °FPassing clouds.6 mph90%29.88 "Hg10 mi
3:52 am75 °FPassing clouds.6 mph90%29.87 "Hg10 mi
4:52 am76 °FPassing clouds.6 mph88%29.87 "Hg10 mi
5:52 am75 °FPassing clouds.5 mph90%29.90 "Hg10 mi
6:52 am77 °FScattered clouds.No wind88%29.92 "Hg10 mi
7:52 am78 °FPartly sunny.5 mph84%29.94 "Hg10 mi
8:52 am79 °FBroken clouds.No wind79%29.96 "Hg10 mi
9:52 am81 °FBroken clouds.5 mph77%29.95 "Hg10 mi
10:57 am82 °FPartly sunny.3 mph72%29.97 "Hg10 mi
11:05 am82 °FBroken clouds.5 mph72%29.97 "Hg10 mi
11:12 am82 °FPartly sunny.No wind72%29.97 "Hg10 mi
11:34 am84 °FBroken clouds.6 mph70%29.97 "Hg10 mi
11:52 am84 °FBroken clouds.6 mph70%29.97 "Hg10 mi
12:52 pm85 °FPartly sunny.8 mph63%29.96 "Hg10 mi
1:52 pm87 °FBroken clouds.9 mph61%29.94 "Hg10 mi
2:52 pm87 °FBroken clouds.9 mph59%29.93 "Hg10 mi
3:52 pm86 °FBroken clouds.5 mph61%29.91 "Hg10 mi
4:52 pm87 °FBroken clouds.9 mph63%29.88 "Hg10 mi
5:52 pm86 °FPartly sunny.9 mph65%29.90 "Hg10 mi
6:52 pm85 °FOvercast.12 mph70%29.91 "Hg10 mi
7:52 pm84 °FBroken clouds.9 mph72%29.92 "Hg10 mi
8:52 pm83 °FPartly cloudy.10 mph72%29.92 "Hg10 mi
9:52 pm82 °FPartly cloudy.12 mph77%29.93 "Hg10 mi
10:52 pm81 °FPartly cloudy.8 mph82%29.91 "Hg10 mi
11:52 pm80 °FPartly cloudy.8 mph85%29.90 "Hg10 mi
Weather by CustomWeather, © 2021

See weather overview